createdAt,value
2018-09-15T00:02:06.266Z,10.03
2018-09-15T00:04:34.999Z,10.40
2018-09-15T00:07:04.023Z,9.97
2018-09-15T00:09:32.738Z,9.67
2018-09-15T00:12:02.050Z,10.40
2018-09-15T00:14:30.712Z,9.70
2018-09-15T00:16:59.471Z,9.77
2018-09-15T00:19:28.440Z,10.10
2018-09-15T00:21:57.096Z,10.43
2018-09-15T00:24:25.879Z,10.27
2018-09-15T00:26:54.997Z,9.90
2018-09-15T00:29:23.675Z,9.10
2018-09-15T00:31:52.324Z,9.93
2018-09-15T00:34:21.072Z,8.73
2018-09-15T00:36:49.753Z,8.90
2018-09-15T00:39:18.376Z,8.73
2018-09-15T00:41:47.076Z,7.83
2018-09-15T00:44:15.900Z,8.70
2018-09-15T00:46:44.557Z,8.60
2018-09-15T00:49:13.721Z,8.77
2018-09-15T00:51:42.615Z,11.37
2018-09-15T00:54:11.319Z,10.43
2018-09-15T00:56:40.002Z,9.40
2018-09-15T00:59:13.729Z,8.90
2018-09-15T01:01:42.590Z,8.60
2018-09-15T01:04:11.294Z,9.40
2018-09-15T01:06:40.982Z,9.40
2018-09-15T01:09:10.392Z,9.50
2018-09-15T01:11:38.996Z,8.70
2018-09-15T01:14:07.877Z,8.70
2018-09-15T01:16:36.431Z,9.50
2018-09-15T01:19:05.308Z,9.50
2018-09-15T01:21:34.834Z,9.37
2018-09-15T01:24:03.536Z,9.77
2018-09-15T01:26:32.235Z,9.83
2018-09-15T01:29:00.843Z,9.07
2018-09-15T01:31:29.679Z,9.83
2018-09-15T01:33:58.313Z,10.20
2018-09-15T01:36:27.495Z,9.80
2018-09-15T01:38:56.159Z,10.43
2018-09-15T01:41:24.784Z,10.37
2018-09-15T01:43:54.386Z,10.77
2018-09-15T01:46:23.107Z,10.47
2018-09-15T01:48:51.832Z,11.27
2018-09-15T01:51:20.517Z,10.40
2018-09-15T01:53:49.118Z,10.80
2018-09-15T01:56:19.008Z,9.90
2018-09-15T01:58:48.070Z,10.63
2018-09-15T02:01:16.717Z,10.00
2018-09-15T02:03:45.445Z,10.17
2018-09-15T02:06:14.139Z,9.47
2018-09-15T02:08:44.301Z,10.17
2018-09-15T02:11:13.355Z,9.33
2018-09-15T02:13:42.852Z,10.40
2018-09-15T02:16:11.562Z,9.93
2018-09-15T02:18:40.364Z,10.47
2018-09-15T02:21:10.756Z,9.33
2018-09-15T02:23:39.679Z,9.80
2018-09-15T02:26:09.014Z,9.97
2018-09-15T02:28:37.915Z,9.03
2018-09-15T02:31:07.170Z,9.57
2018-09-15T02:33:35.864Z,8.00
2018-09-15T02:36:04.760Z,7.37
2018-09-15T02:38:33.366Z,7.87
2018-09-15T02:41:02.722Z,8.07
2018-09-15T02:43:31.328Z,7.93
2018-09-15T02:46:00.486Z,8.37
2018-09-15T02:48:29.448Z,7.43
2018-09-15T02:50:58.683Z,6.33
2018-09-15T02:53:28.479Z,7.93
2018-09-15T02:55:57.289Z,7.97
2018-09-15T02:58:25.967Z,8.37
2018-09-15T03:00:54.767Z,8.67
2018-09-15T03:03:23.680Z,7.57
2018-09-15T03:05:52.358Z,8.13
2018-09-15T03:08:21.152Z,7.50
2018-09-15T03:10:49.879Z,7.27
2018-09-15T03:13:18.516Z,7.30
2018-09-15T03:15:47.192Z,7.50
2018-09-15T03:18:15.965Z,8.13
2018-09-15T03:20:44.637Z,8.63
2018-09-15T03:23:13.374Z,9.07
2018-09-15T03:25:42.099Z,8.33
2018-09-15T03:28:11.655Z,8.87
2018-09-15T03:30:40.416Z,8.70
2018-09-15T03:33:09.107Z,8.57
2018-09-15T03:35:37.847Z,8.77
2018-09-15T03:38:06.705Z,8.47
2018-09-15T03:40:35.417Z,9.57
2018-09-15T03:43:04.326Z,8.60
2018-09-15T03:45:33.058Z,8.90
2018-09-15T03:48:01.854Z,8.67
2018-09-15T03:50:30.827Z,8.30
2018-09-15T03:52:59.528Z,9.00
2018-09-15T03:55:28.746Z,8.57
2018-09-15T03:57:57.304Z,8.47
2018-09-15T04:00:25.933Z,8.63
2018-09-15T04:02:54.450Z,9.60
2018-09-15T04:05:23.222Z,9.37
2018-09-15T04:07:51.797Z,9.57
2018-09-15T04:10:21.019Z,10.17
2018-09-15T04:12:49.709Z,10.00
2018-09-15T04:15:18.413Z,10.23
2018-09-15T04:17:47.072Z,10.47
2018-09-15T04:20:15.833Z,10.23
2018-09-15T04:22:44.482Z,10.73
2018-09-15T04:25:13.199Z,9.77
2018-09-15T04:27:41.804Z,10.23
2018-09-15T04:30:10.673Z,9.97
2018-09-15T04:32:40.226Z,9.03
2018-09-15T04:35:08.884Z,9.17
2018-09-15T04:37:37.690Z,8.90
2018-09-15T04:40:07.643Z,9.37
2018-09-15T04:42:36.377Z,8.80
2018-09-15T04:45:05.165Z,8.27
2018-09-15T04:47:34.312Z,8.60
2018-09-15T04:50:03.181Z,8.20
2018-09-15T04:52:32.044Z,8.73
2018-09-15T04:55:00.961Z,8.63
2018-09-15T04:57:30.182Z,8.43
2018-09-15T04:59:58.831Z,8.67
2018-09-15T05:02:27.599Z,8.73
2018-09-15T05:04:57.330Z,8.70
2018-09-15T05:07:27.059Z,8.27
2018-09-15T05:09:56.443Z,7.90
2018-09-15T05:12:25.208Z,8.70
2018-09-15T05:14:54.136Z,8.00
2018-09-15T05:17:22.829Z,8.53
2018-09-15T05:19:51.513Z,8.47
2018-09-15T05:22:20.436Z,8.93
2018-09-15T05:24:50.183Z,8.43
2018-09-15T05:27:18.985Z,7.73
2018-09-15T05:29:47.625Z,7.70
2018-09-15T05:32:16.374Z,7.45
2018-09-15T05:34:45.898Z,8.03
2018-09-15T05:37:14.546Z,10.83
2018-09-15T05:39:43.874Z,9.00
2018-09-15T05:42:12.609Z,8.23
2018-09-15T05:44:41.361Z,7.30
2018-09-15T05:47:17.005Z,8.43
2018-09-15T05:49:45.780Z,7.73
2018-09-15T05:52:14.399Z,8.13
2018-09-15T05:54:43.072Z,6.80
2018-09-15T05:57:11.778Z,7.10
2018-09-15T05:59:40.676Z,7.03
2018-09-15T06:02:09.747Z,8.07
2018-09-15T06:04:38.541Z,7.50
2018-09-15T06:07:07.164Z,6.97
2018-09-15T06:09:35.925Z,7.10
2018-09-15T06:12:05.566Z,6.93
2018-09-15T06:14:34.675Z,7.03
2018-09-15T06:17:03.835Z,7.30
2018-09-15T06:19:32.862Z,7.17
2018-09-15T06:22:04.089Z,7.17
2018-09-15T06:24:32.748Z,6.50
2018-09-15T06:27:01.430Z,6.83
2018-09-15T06:29:30.505Z,7.30
2018-09-15T06:32:00.795Z,7.67
2018-09-15T06:34:29.579Z,8.90
2018-09-15T06:36:58.951Z,8.50
2018-09-15T06:39:28.729Z,9.67
2018-09-15T06:41:58.632Z,8.23
2018-09-15T06:44:28.406Z,7.37
2018-09-15T06:46:57.133Z,8.10
2018-09-15T06:49:28.044Z,9.33
2018-09-15T06:51:58.950Z,8.03
2018-09-15T06:54:29.325Z,7.03
2018-09-15T06:56:58.171Z,7.93
2018-09-15T06:59:26.904Z,8.13
2018-09-15T07:01:55.636Z,8.20
2018-09-15T07:04:25.397Z,9.37
2018-09-15T07:06:54.980Z,8.80
2018-09-15T07:09:25.137Z,8.77
2018-09-15T07:11:53.934Z,7.63
2018-09-15T07:14:23.424Z,8.60
2018-09-15T07:16:53.606Z,7.70
2018-09-15T07:19:23.254Z,8.10
2018-09-15T07:21:52.351Z,8.10
2018-09-15T07:24:20.900Z,8.40
2018-09-15T07:26:52.265Z,8.30
2018-09-15T07:29:21.463Z,7.43
2018-09-15T07:31:50.808Z,7.67
2018-09-15T07:34:19.638Z,6.57
2018-09-15T07:36:49.424Z,8.00
2018-09-15T07:39:18.133Z,6.63
2018-09-15T07:41:46.855Z,7.27
2018-09-15T07:44:15.486Z,6.93
2018-09-15T07:46:44.376Z,8.07
2018-09-15T07:49:13.081Z,8.07
2018-09-15T07:51:41.827Z,7.20
2018-09-15T07:54:12.167Z,7.27
2018-09-15T07:56:42.097Z,6.93
2018-09-15T07:59:13.347Z,6.83
2018-09-15T08:01:42.034Z,6.70
2018-09-15T08:04:10.723Z,7.23
2018-09-15T08:06:39.701Z,7.70
2018-09-15T08:09:08.640Z,6.77
2018-09-15T08:11:37.831Z,7.40
2018-09-15T08:14:06.632Z,7.30
2018-09-15T08:16:36.162Z,7.33
2018-09-15T08:19:04.950Z,7.30
2018-09-15T08:21:33.770Z,7.83
2018-09-15T08:24:02.399Z,7.40
2018-09-15T08:26:31.053Z,6.97
2018-09-15T08:29:01.303Z,7.00
2018-09-15T08:31:30.038Z,6.60
2018-09-15T08:33:58.746Z,6.90
2018-09-15T08:36:27.399Z,7.00
2018-09-15T08:38:56.158Z,6.40
2018-09-15T08:41:24.818Z,6.67
2018-09-15T08:43:53.614Z,6.40
2018-09-15T08:46:22.851Z,7.00
2018-09-15T08:48:51.558Z,6.77
2018-09-15T08:51:20.225Z,6.50
2018-09-15T08:53:49.068Z,6.67
2018-09-15T08:56:17.807Z,6.30
2018-09-15T08:58:46.408Z,6.47
2018-09-15T09:01:15.442Z,6.47
2018-09-15T09:03:44.233Z,6.92
2018-09-15T09:06:12.994Z,6.40
2018-09-15T09:08:42.645Z,5.87
2018-09-15T09:11:12.150Z,6.13
2018-09-15T09:13:42.018Z,5.40
2018-09-15T09:16:10.691Z,5.53
2018-09-15T09:18:39.337Z,5.07
2018-09-15T09:21:08.550Z,6.33
2018-09-15T09:23:37.275Z,5.60
2018-09-15T09:26:06.142Z,6.10
2018-09-15T09:28:34.700Z,4.90
2018-09-15T09:31:14.208Z,4.63
2018-09-15T09:33:42.769Z,5.33
2018-09-15T09:36:11.679Z,4.50
2018-09-15T09:38:40.344Z,4.17
2018-09-15T09:41:09.343Z,3.97
2018-09-15T09:43:38.121Z,3.80
2018-09-15T09:46:06.893Z,4.10
2018-09-15T09:48:35.603Z,4.30
2018-09-15T09:51:05.146Z,4.00
2018-09-15T09:53:34.446Z,4.60
2018-09-15T09:56:03.597Z,3.80
2018-09-15T09:58:32.257Z,4.03
2018-09-15T10:01:06.806Z,4.05
2018-09-15T10:03:35.448Z,3.53
2018-09-15T10:06:04.079Z,4.03
2018-09-15T10:08:32.926Z,3.33
2018-09-15T10:11:03.358Z,3.52
2018-09-15T10:13:32.047Z,2.90
2018-09-15T10:16:00.734Z,3.08
2018-09-15T10:18:29.518Z,3.30
2018-09-15T10:20:58.858Z,2.92
2018-09-15T10:23:27.610Z,2.50
2018-09-15T10:25:56.244Z,2.40
2018-09-15T10:28:25.018Z,2.40
2018-09-15T10:30:54.393Z,2.50
2018-09-15T10:33:24.088Z,2.10
2018-09-15T10:35:52.943Z,2.42
2018-09-15T10:38:23.686Z,1.97
2018-09-15T10:40:53.180Z,2.20
2018-09-15T10:43:23.038Z,2.10
2018-09-15T10:45:51.939Z,2.23
2018-09-15T10:48:21.168Z,2.15
2018-09-15T10:50:49.880Z,2.60
2018-09-15T10:53:20.222Z,2.70
2018-09-15T10:55:48.900Z,3.07
2018-09-15T10:58:17.881Z,3.13
2018-09-15T11:00:46.650Z,3.73
2018-09-15T11:03:15.252Z,3.60
2018-09-15T11:05:43.920Z,3.60
2018-09-15T11:08:12.598Z,3.98
2018-09-15T11:10:41.305Z,4.17
2018-09-15T11:13:10.031Z,4.13
2018-09-15T11:15:38.709Z,4.27
2018-09-15T11:18:08.056Z,3.83
2018-09-15T11:20:37.137Z,3.97
2018-09-15T11:23:06.317Z,3.87
2018-09-15T11:25:35.355Z,3.70
2018-09-15T11:28:04.398Z,3.58
2018-09-15T11:30:34.009Z,3.63
2018-09-15T11:33:04.166Z,3.33
2018-09-15T11:35:33.881Z,3.30
2018-09-15T11:38:11.215Z,3.20
2018-09-15T11:40:41.129Z,3.08
2018-09-15T11:43:11.051Z,3.10
2018-09-15T11:45:50.440Z,3.15
2018-09-15T11:48:19.103Z,2.40
2018-09-15T11:50:48.102Z,2.75
2018-09-15T11:53:16.840Z,3.20
2018-09-15T11:55:45.915Z,3.33
2018-09-15T11:58:14.663Z,3.20
2018-09-15T12:00:48.856Z,3.12
2018-09-15T12:03:17.575Z,2.83
2018-09-15T12:05:46.274Z,3.23
2018-09-15T12:08:14.962Z,3.20
2018-09-15T12:10:44.028Z,3.40
2018-09-15T12:13:12.904Z,3.30
2018-09-15T12:15:41.547Z,4.28
2018-09-15T12:18:10.299Z,3.33
2018-09-15T12:20:39.106Z,3.15
2018-09-15T12:23:07.906Z,3.22
2018-09-15T12:25:37.736Z,3.10
2018-09-15T12:28:06.613Z,3.08
2018-09-15T12:30:35.796Z,3.02
2018-09-15T12:33:04.552Z,3.27
2018-09-15T12:35:33.366Z,2.98
2018-09-15T12:38:02.306Z,2.72
2018-09-15T12:40:31.187Z,3.40
2018-09-15T12:42:59.823Z,2.60
2018-09-15T12:45:29.179Z,2.58
2018-09-15T12:47:57.902Z,3.10
2018-09-15T12:50:27.989Z,3.10
2018-09-15T12:52:56.924Z,3.00
2018-09-15T12:55:25.639Z,2.63
2018-09-15T12:57:54.480Z,3.27
2018-09-15T13:00:23.304Z,2.80
2018-09-15T13:02:52.198Z,3.20
2018-09-15T13:05:21.028Z,3.37
2018-09-15T13:07:50.483Z,3.08
2018-09-15T13:10:19.286Z,2.83
2018-09-15T13:12:49.452Z,2.77
2018-09-15T13:15:18.331Z,2.90
2018-09-15T13:17:47.165Z,2.40
2018-09-15T13:20:15.804Z,2.53
2018-09-15T13:22:44.942Z,2.80
2018-09-15T13:25:14.454Z,2.73
2018-09-15T13:27:43.187Z,2.65
2018-09-15T13:30:12.151Z,2.70
2018-09-15T13:32:40.873Z,2.62
2018-09-15T13:35:10.316Z,2.47
2018-09-15T13:37:38.900Z,2.30
2018-09-15T13:40:07.881Z,2.70
2018-09-15T13:42:36.588Z,2.40
2018-09-15T13:45:05.531Z,2.33
2018-09-15T13:47:34.290Z,2.60
2018-09-15T13:50:03.444Z,2.52
2018-09-15T13:52:32.146Z,2.30
2018-09-15T13:55:00.856Z,2.10
2018-09-15T13:57:29.537Z,2.17
2018-09-15T13:59:58.506Z,2.10
2018-09-15T14:02:27.272Z,2.07
2018-09-15T14:07:55.559Z,2.47
2018-09-15T14:10:25.066Z,2.45
2018-09-15T14:12:54.016Z,2.35
2018-09-15T14:15:22.831Z,2.58
2018-09-15T14:17:52.594Z,2.83
2018-09-15T14:20:21.439Z,2.80
2018-09-15T14:22:50.245Z,2.60
2018-09-15T14:25:18.834Z,2.70
2018-09-15T14:27:48.257Z,2.67
2018-09-15T14:30:16.927Z,2.67
2018-09-15T14:32:45.730Z,2.87
2018-09-15T14:35:14.482Z,2.42
2018-09-15T14:37:43.190Z,2.60
2018-09-15T14:40:11.915Z,2.95
2018-09-15T14:42:40.832Z,3.35
2018-09-15T14:45:09.721Z,3.25
2018-09-15T14:47:38.335Z,2.53
2018-09-15T14:50:07.412Z,3.10
2018-09-15T14:52:37.136Z,3.20
2018-09-15T14:55:06.215Z,3.30
2018-09-15T14:57:35.927Z,3.05
2018-09-15T15:00:05.186Z,3.13
2018-09-15T15:02:34.164Z,2.90
2018-09-15T15:05:02.905Z,3.05
2018-09-15T15:07:31.595Z,3.20
2018-09-15T15:10:00.838Z,3.12
2018-09-15T15:12:30.116Z,2.65
2018-09-15T15:14:58.785Z,3.30
2018-09-15T15:17:27.490Z,3.43
2018-09-15T15:19:57.363Z,3.55
2018-09-15T15:22:26.081Z,2.90
2018-09-15T15:24:54.916Z,3.02
2018-09-15T15:27:24.582Z,2.70
2018-09-15T15:29:54.036Z,2.30
2018-09-15T15:32:23.696Z,2.70
2018-09-15T15:34:52.461Z,2.33
2018-09-15T15:37:21.366Z,2.65
2018-09-15T15:39:50.165Z,2.60
2018-09-15T15:42:19.775Z,2.67
2018-09-15T15:44:49.733Z,2.00
2018-09-15T15:47:18.417Z,2.30
2018-09-15T15:49:47.878Z,2.00
2018-09-15T15:52:16.963Z,1.98
2018-09-15T15:54:46.074Z,1.80
2018-09-15T15:57:14.626Z,2.35
2018-09-15T15:59:43.345Z,2.15
2018-09-15T16:02:12.135Z,2.23
2018-09-15T16:04:40.729Z,1.80
2018-09-15T16:07:09.676Z,1.90
2018-09-15T16:09:38.507Z,2.90
2018-09-15T16:12:07.389Z,2.37
2018-09-15T16:14:36.916Z,2.20
2018-09-15T16:17:05.644Z,2.00
2018-09-15T16:19:34.436Z,2.00
2018-09-15T16:22:03.175Z,2.25
2018-09-15T16:24:31.832Z,2.33
2018-09-15T16:27:00.579Z,2.07
2018-09-15T16:29:29.634Z,2.92
2018-09-15T16:31:59.455Z,2.30
2018-09-15T16:34:28.581Z,2.20
2018-09-15T16:36:57.376Z,2.37
2018-09-15T16:39:25.962Z,2.50
2018-09-15T16:41:54.700Z,3.37
2018-09-15T16:44:23.913Z,2.63
2018-09-15T16:46:53.399Z,3.00
2018-09-15T16:49:22.050Z,2.87
2018-09-15T16:51:51.036Z,2.35
2018-09-15T16:54:19.704Z,2.72
2018-09-15T16:56:49.404Z,2.70
2018-09-15T16:59:18.249Z,2.63
2018-09-15T17:01:48.543Z,2.00
2018-09-15T17:04:18.350Z,2.07
2018-09-15T17:06:47.581Z,2.37
2018-09-15T17:09:17.135Z,2.62
2018-09-15T17:11:46.456Z,2.30
2018-09-15T17:14:15.352Z,2.30
2018-09-15T17:16:46.258Z,2.23
2018-09-15T17:19:14.799Z,2.30
2018-09-15T17:21:43.516Z,2.30
2018-09-15T17:24:12.182Z,2.20
2018-09-15T17:26:40.905Z,2.47
2018-09-15T17:29:11.435Z,2.10
2018-09-15T17:31:40.064Z,2.20
2018-09-15T17:34:09.808Z,2.05
2018-09-15T17:36:38.406Z,1.90
2018-09-15T17:39:09.756Z,2.67
2018-09-15T17:41:39.028Z,1.97
2018-09-15T17:44:08.691Z,2.40
2018-09-15T17:46:37.715Z,2.20
2018-09-15T17:49:06.646Z,2.12
2018-09-15T17:51:36.837Z,2.22
2018-09-15T17:54:06.128Z,1.90
2018-09-15T17:56:35.248Z,2.20
2018-09-15T17:59:05.413Z,2.20
2018-09-15T18:01:36.167Z,2.25
2018-09-15T18:04:05.743Z,1.90
2018-09-15T18:06:35.834Z,2.25
2018-09-15T18:09:06.539Z,2.30
2018-09-15T18:11:35.425Z,2.15
2018-09-15T18:14:04.845Z,5.30
2018-09-15T18:16:33.857Z,5.27
2018-09-15T18:19:05.798Z,3.77
2018-09-15T18:21:47.180Z,3.10
2018-09-15T18:24:16.786Z,2.23
2018-09-15T18:26:45.635Z,2.10
2018-09-15T18:29:14.534Z,2.20
2018-09-15T18:31:45.455Z,2.40
2018-09-15T18:34:14.219Z,2.00
2018-09-15T18:36:43.796Z,2.20
2018-09-15T18:39:12.527Z,2.03
2018-09-15T18:41:41.448Z,2.13
2018-09-15T18:44:10.573Z,2.20
2018-09-15T18:46:40.180Z,2.50
2018-09-15T18:49:09.035Z,2.40
2018-09-15T18:51:38.229Z,2.77
2018-09-15T18:54:07.245Z,2.73
2018-09-15T18:56:38.015Z,2.70
2018-09-15T18:59:07.042Z,2.57
2018-09-15T19:01:38.100Z,3.00
2018-09-15T19:04:07.066Z,3.30
2018-09-15T19:06:36.652Z,2.97
2018-09-15T19:09:08.518Z,2.73
2018-09-15T19:11:38.916Z,3.07
2018-09-15T19:14:07.710Z,2.70
2018-09-15T19:16:36.508Z,2.90
2018-09-15T19:19:06.204Z,2.83
2018-09-15T19:21:36.477Z,2.60
2018-09-15T19:24:05.184Z,3.13
2018-09-15T19:26:35.404Z,3.00
2018-09-15T19:29:04.800Z,2.73
2018-09-15T19:31:33.650Z,2.62
2018-09-15T19:34:03.196Z,3.00
2018-09-15T19:36:31.910Z,2.53
2018-09-15T19:39:00.640Z,3.17
2018-09-15T19:41:29.786Z,3.20
2018-09-15T19:43:59.149Z,3.10
2018-09-15T19:46:29.023Z,2.70
2018-09-15T19:49:44.912Z,3.23
2018-09-15T19:52:13.549Z,2.90
2018-09-15T19:54:42.982Z,3.10
2018-09-15T19:57:11.764Z,3.07
2018-09-15T19:59:41.697Z,2.93
2018-09-15T20:02:12.462Z,3.07
2018-09-15T20:04:41.376Z,3.07
2018-09-15T20:08:16.560Z,3.20
2018-09-15T20:10:45.820Z,3.60
2018-09-15T20:13:15.375Z,3.50
2018-09-15T20:15:42.838Z,3.80
2018-09-15T20:18:11.681Z,3.50
2018-09-15T20:20:39.128Z,3.73
2018-09-15T20:23:08.461Z,3.90
2018-09-15T20:25:38.094Z,4.00
2018-09-15T20:28:07.965Z,3.57
2018-09-15T20:30:38.966Z,3.53
2018-09-15T20:33:08.854Z,4.00
2018-09-15T20:35:38.948Z,4.00
2018-09-15T20:38:07.645Z,3.80
2018-09-15T20:40:38.336Z,4.30
2018-09-15T20:43:07.954Z,4.70
2018-09-15T20:45:36.569Z,4.87
2018-09-15T20:48:05.364Z,4.03
2018-09-15T20:50:35.661Z,4.33
2018-09-15T20:53:04.304Z,4.37
2018-09-15T20:55:33.253Z,5.30
2018-09-15T20:58:02.035Z,4.90
2018-09-15T21:00:31.715Z,4.50
2018-09-15T21:03:00.602Z,4.90
2018-09-15T21:05:29.324Z,4.77
2018-09-15T21:07:58.025Z,4.33
2018-09-15T21:10:26.672Z,4.23
2018-09-15T21:12:56.485Z,5.00
2018-09-15T21:15:26.368Z,4.87
2018-09-15T21:17:55.231Z,4.37
2018-09-15T21:20:24.254Z,4.70
2018-09-15T21:22:53.212Z,4.67
2018-09-15T21:25:22.165Z,4.37
2018-09-15T21:27:51.121Z,3.93
2018-09-15T21:30:20.772Z,4.50
2018-09-15T21:32:50.408Z,4.43
2018-09-15T21:35:19.847Z,4.30
2018-09-15T21:37:49.657Z,3.83
2018-09-15T21:40:18.484Z,3.90
2018-09-15T21:42:48.940Z,4.60
2018-09-15T21:45:18.528Z,4.00
2018-09-15T21:47:48.150Z,4.50
2018-09-15T21:50:16.927Z,3.90
2018-09-15T21:52:47.401Z,4.03
2018-09-15T21:55:16.245Z,4.47
2018-09-15T21:57:47.056Z,4.07
2018-09-15T22:00:15.845Z,4.40
2018-09-15T22:02:44.732Z,4.20
2018-09-15T22:05:13.573Z,4.00
2018-09-15T22:07:42.374Z,4.23
2018-09-15T22:10:11.097Z,4.37
2018-09-15T22:12:40.875Z,4.27
2018-09-15T22:15:26.934Z,4.70
2018-09-15T22:17:57.420Z,3.93
2018-09-15T22:20:26.106Z,4.17
2018-09-15T22:22:55.833Z,4.20
2018-09-15T22:25:25.645Z,4.27
2018-09-15T22:27:54.453Z,4.50
2018-09-15T22:30:24.386Z,3.97
2018-09-15T22:32:54.945Z,4.30
2018-09-15T22:35:23.754Z,4.03
2018-09-15T22:37:52.341Z,4.40
2018-09-15T22:40:20.919Z,4.50
2018-09-15T22:42:49.558Z,4.33
2018-09-15T22:45:18.279Z,4.80
2018-09-15T22:47:47.074Z,4.40
2018-09-15T22:50:15.798Z,4.50
2018-09-15T22:52:44.437Z,4.80
2018-09-15T22:55:13.186Z,4.60
2018-09-15T22:57:41.899Z,4.13
2018-09-15T23:00:10.742Z,4.83
2018-09-15T23:02:39.394Z,4.60
2018-09-15T23:05:08.299Z,4.70
2018-09-15T23:07:38.417Z,4.50
2018-09-15T23:10:07.099Z,4.77
2018-09-15T23:12:42.451Z,4.60
2018-09-15T23:15:13.117Z,5.07
2018-09-15T23:17:41.837Z,4.83
2018-09-15T23:20:10.827Z,4.97
2018-09-15T23:22:39.402Z,4.93
2018-09-15T23:25:08.396Z,5.10
2018-09-15T23:27:38.095Z,5.03
2018-09-15T23:30:08.571Z,4.90
2018-09-15T23:32:37.265Z,4.70
2018-09-15T23:35:06.601Z,4.87
2018-09-15T23:37:37.028Z,4.93
2018-09-15T23:40:05.670Z,5.17
2018-09-15T23:42:34.716Z,5.47
2018-09-15T23:45:05.052Z,5.13
2018-09-15T23:47:35.147Z,5.20
2018-09-15T23:50:05.554Z,5.97
2018-09-15T23:52:34.587Z,5.20
2018-09-15T23:55:03.390Z,5.10
2018-09-15T23:57:33.176Z,5.10
